Main page
METAR-TAF:

METAR-TAF

Airports :

Laupheim Air Base

Laupheim, Germany

latitude: 48-13N, longitude: 009-55E, elevation: 538 m

Current weather observation

The report was made 15 minutes ago, at 18:50 UTC
Wind 3 kt from the South
Temperature -1°C
Humidity 100%
Pressure 1016 hPa
Visibility: 3500 m
Overcast at a height of 300 ft
(light) freezing, drizzle, mist

METAR: ETHL 211850Z 17003KT 3500 -FZDZ BR OVC003 M01/M01 Q1016 YLO

Time: 20:05 (19:05 UTC)

Forecast

The report was made 3 hours and 5 minutes ago, at 16:00 UTC
Forecast valid from 21 at 15 UTC to 21 at 24 UTC
Wind 7 kt from the East/Northeast
Visibility: 1800 m
Overcast at a height of 200 ft
mist
Temporary
from 21 at 16 UTC to 21 at 21 UTC
Wind 3 kt from the North/Northeast
Visibility: 1700 m
at a height lower than 100 ft
freezing fog

TAF: ETHL 211600Z 2115/2124 06007KT 1800 BR OVC002 TEMPO 2116/2121 03003KT 0600 FZFG VV000 CANCEL 1700

Weather observations and forecasts of more than 4000 airports (METAR and TAF reports).

The available stations are represented by yellow and red dots on the map.

Hover mouse over dot to see the name of the station.

Then click to see weather observations and forecasts.

To change the map : click on the green buttons with a black cross to zoom in, on the green button with a dash to zoom out, or on the green arrows for adjacent maps.


METAR-TAF: